• Join FlightAware (Why Join?)
  • Login
  • US Flag 
07:45PM EDT


 

Airport Tracker/Info


-or-


 

Live Flight TrackerFlight Track Log ✈ N2115B ✈ 28-Apr-2013 ✈ KPWK - KOZW

Flight Track Log - Related Links

Times and Time Zones

All times are in EDT time to prevent confusion due to time zone crossing. See the N2115B flight status page for this flight to view local times or setup timezone preferences in your user account.

Time Position Orientation Groundspeed Altitude Reporting Facility
EDT Latitude Longitude Course Direction KTS MPH feet Rate Location/Type
04:11PM 42.1500 -87.9000 37° Northeast 105 121 1,300  Level Chicago TRACON
04:12PM 42.1667 -87.8833 37° Northeast 111 128 1,900 480 Climbing Chicago TRACON
04:13PM 42.1797 -87.8511 61° Northeast 107 123 2,300 480 Climbing Chicago Center
04:14PM 42.1889 -87.8094 73° East 120 138 2,900 240 Climbing Chicago Center
04:15PM 42.1881 -87.7617 91° East 125 144 2,800  Descending Chicago Center
04:16PM 42.1964 -87.7056 79° East 129 148 2,900  Climbing Chicago Center
04:17PM 42.1997 -87.6586 85° East 127 146 2,900  Level Chicago Center
04:18PM 42.1856 -87.6161 114° Southeast 126 145 2,900  Level Chicago Center
04:19PM 42.1669 -87.5767 122° Southeast 125 144 3,000 240 Climbing Chicago Center
04:20PM 42.1494 -87.5375 121° Southeast 125 144 3,500 600 Climbing Chicago Center
04:21PM 42.1442 -87.4847 98° East 131 151 4,300 720 Climbing Chicago Center
04:22PM 42.1433 -87.4439 92° East 120 138 5,000 600 Climbing Chicago Center
04:23PM 42.1386 -87.4014 99° East 115 132 5,600 480 Climbing Chicago Center
04:24PM 42.1356 -87.3569 95° East 119 137 6,000 180 Climbing Chicago Center
04:25PM 42.1317 -87.3089 96° East 128 147 6,000  Level Chicago Center
04:26PM 42.1275 -87.2475 95° East 137 158 6,000  Level Chicago Center
04:27PM 42.1264 -87.1942 92° East 141 162 6,000  Level Chicago Center
04:28PM 42.1306 -87.1428 84° East 140 161 6,000  Level Chicago Center
04:29PM 42.1344 -87.0908 84° East 140 161 6,000  Level Chicago Center
04:30PM 42.1353 -87.0406 89° East 140 161 6,100 60 Climbing Chicago Center
04:31PM 42.1342 -86.9767 91° East 143 165 6,200 180 Climbing Chicago Center
04:32PM 42.1339 -86.9261 90° East 136 157 6,500 240 Climbing Chicago Center
04:33PM 42.1325 -86.8753 92° East 137 158 6,800 240 Climbing Chicago Center
04:34PM 42.1311 -86.8236 92° East 139 160 7,100 60 Climbing Chicago Center
04:35PM 42.1342 -86.7694 86° East 143 165 7,000 -60 Descending Chicago Center
04:36PM 42.1356 -86.7206 88° East 137 158 7,000  Level Chicago Center
04:38PM 42.1367 -86.6597 89° East 137 158 7,000  Level Chicago Center
04:39PM 42.1358 -86.6078 91° East 139 160 7,000  Level Chicago Center
04:40PM 42.1347 -86.5561 92° East 138 159 7,000  Level Chicago Center
04:41PM 42.1364 -86.5072 87° East 138 159 7,000  Level Chicago Center
04:42PM 42.1464 -86.4558 75° East 136 157 7,000  Level Chicago Center
04:43PM 42.1567 -86.4072 74° East 135 155 7,000  Level Chicago Center
04:44PM 42.1708 -86.3472 72° East 139 160 7,000  Level Chicago Center
04:45PM 42.1825 -86.2986 72° East 138 159 7,000  Level Chicago Center
04:46PM 42.1947 -86.2481 72° East 140 161 7,000  Level Chicago Center
04:47PM 42.2042 -86.1978 76° East 139 160 7,000  Level Chicago Center
04:48PM 42.2114 -86.1469 79° East 139 160 7,100  Climbing Chicago Center
04:49PM 42.2206 -86.0972 76° East 136 157 7,100  Level Chicago Center
04:50PM 42.2344 -86.0383 72° East 137 158 7,100 -60 Level Chicago Center
04:51PM 42.2453 -85.9900 73° East 136 157 7,000 -60 Descending Chicago Center
04:52PM 42.2558 -85.9389 74° East 139 160 7,000  Level Chicago Center
04:53PM 42.2669 -85.8872 74° East 142 163 7,000  Level Chicago Center
04:54PM 42.2772 -85.8361 75° East 141 162 7,100  Climbing Chicago Center
04:55PM 42.2872 -85.7781 77° East 143 165 7,000 -60 Descending Chicago Center
04:56PM 42.2975 -85.7283 74° East 141 162 7,000  Level Chicago Center
04:57PM 42.3067 -85.6756 77° East 143 165 7,000  Level Chicago Center
04:58PM 42.3156 -85.6239 77° East 143 165 7,000  Level Chicago Center
04:59PM 42.3278 -85.5611 75° East 144 166 7,000  Level Chicago Center
05:00PM 42.3378 -85.5097 75° East 144 166 7,000 -60 Level Chicago Center
05:01PM 42.3469 -85.4586 76° East 142 163 6,900 -60 Descending Chicago Center
05:02PM 42.3564 -85.4078 76° East 141 162 6,900  Level Chicago Center
05:03PM 42.3686 -85.3575 72° East 141 162 6,900  Level Chicago Center
05:04PM 42.3814 -85.2964 74° East 141 162 6,900  Level Chicago Center
05:05PM 42.3925 -85.2458 73° East 141 162 6,900  Level Chicago Center
05:06PM 42.4039 -85.1936 74° East 143 165 6,900  Level Chicago Center
05:08PM 42.4150 -85.1428 73° East 142 163 6,900  Level Chicago Center
05:09PM 42.4267 -85.0900 73° East 145 167 6,900  Level Chicago Center
05:10PM 42.4344 -85.0375 79° East 144 166 6,900  Level Chicago Center
05:11PM 42.4444 -84.9725 78° East 145 167 6,900  Level Chicago Center
05:12PM 42.4536 -84.9181 77° East 149 171 7,000  Climbing Chicago Center
05:13PM 42.4636 -84.8642 76° East 147 169 7,000  Level Chicago Center
05:14PM 42.4742 -84.8122 75° East 145 167 7,000  Level Chicago Center
05:15PM 42.4850 -84.7572 75° East 149 171 7,000 -60 Level Chicago Center
05:16PM 42.5108 -84.6997 59° Northeast 150 173 6,900 -240 Descending Chicago Center
05:17PM 42.5364 -84.6481 56° Northeast 160 184 6,600 -480 Descending Chicago Center
05:18PM 42.5617 -84.5956 57° Northeast 166 191 6,000 -720 Descending Chicago Center
05:19PM 42.5872 -84.5425 57° Northeast 167 192 5,200 -720 Descending Chicago Center
05:20PM 42.6117 -84.4894 58° Northeast 167 192 4,600 -660 Descending Chicago Center
05:21PM 42.6361 -84.4394 56° Northeast 162 186 3,900 -720 Descending Chicago Center